Time;durP1;ratioP1;P1;durP2;ratioP2;P2;SDS_P1;SDS_P2;PMS_P1;PMS_P2;Temp;Humidity;BMP_temperature;BMP_pressure;BME280_temperature;BME280_humidity;BME280_pressure;Samples;Min_cycle;Max_cycle;Signal;HPM_P1;HPM_P2
2022/10/29 00:01:10;;;;;;;99.43;51.65;;;;;;;13.88;100.00;101592.09;5109008;28;20024;-68
2022/10/29 00:03:36;;;;;;;105.05;50.83;;;;;;;14.01;100.00;101609.00;5109232;28;20065;-67
2022/10/29 00:06:04;;;;;;;106.15;53.40;;;;;;;13.90;100.00;101592.84;5109545;28;20039;-67
2022/10/29 00:08:32;;;;;;;105.68;51.90;;;;;;;14.01;100.00;101617.06;5109339;28;20047;-68
2022/10/29 00:11:19;;;;;;;92.82;48.97;;;;;;;13.90;100.00;101601.78;5109445;28;20096;-67
2022/10/29 00:13:46;;;;;;;96.25;48.03;;;;;;;13.96;100.00;101603.13;5106397;28;20020;-68
2022/10/29 00:16:19;;;;;;;89.60;46.45;;;;;;;14.03;100.00;101612.44;5109197;28;20077;-67
2022/10/29 00:18:45;;;;;;;89.60;46.20;;;;;;;14.04;100.00;101617.69;5107802;28;20128;-68
2022/10/29 00:21:14;;;;;;;90.45;45.25;;;;;;;14.02;100.00;101614.25;5108130;28;20444;-67
2022/10/29 00:23:40;;;;;;;85.50;44.78;;;;;;;13.99;100.00;101611.81;5109571;28;20680;-67
2022/10/29 00:26:06;;;;;;;83.63;43.97;;;;;;;14.00;100.00;101613.53;5108098;28;20023;-67
2022/10/29 00:28:32;;;;;;;90.95;47.10;;;;;;;13.99;100.00;101611.81;5109872;28;20545;-67
2022/10/29 00:31:12;;;;;;;88.70;44.95;;;;;;;13.97;100.00;101607.53;5109909;28;20027;-67
2022/10/29 00:33:37;;;;;;;88.10;44.97;;;;;;;14.01;100.00;101612.56;5109833;28;20023;-67
2022/10/29 00:36:05;;;;;;;90.28;45.50;;;;;;;13.99;100.00;101610.97;5109124;27;20023;-67
2022/10/29 00:38:32;;;;;;;90.93;47.38;;;;;;;13.99;100.00;101616.38;5109006;28;20104;-67
2022/10/29 00:40:57;;;;;;;82.25;44.88;;;;;;;13.98;100.00;101612.81;5110032;28;20523;-67
2022/10/29 00:43:24;;;;;;;80.55;44.22;;;;;;;13.97;100.00;101607.53;5109487;28;20023;-67
2022/10/29 00:45:55;;;;;;;84.45;43.33;;;;;;;13.88;100.00;101598.34;5109186;28;20051;-67
2022/10/29 00:48:23;;;;;;;70.90;41.05;;;;;;;13.97;100.00;101613.78;5108977;28;20055;-70
2022/10/29 00:50:50;;;;;;;76.45;44.13;;;;;;;13.93;100.00;101609.59;5109412;28;20046;-70
2022/10/29 00:53:21;;;;;;;82.65;42.85;;;;;;;13.97;100.00;101604.84;5108696;28;20015;-70
2022/10/29 00:55:47;;;;;;;82.38;43.65;;;;;;;13.95;100.00;101602.25;5109025;28;20462;-70
2022/10/29 00:58:13;;;;;;;93.38;46.88;;;;;;;13.93;100.00;101600.69;5108871;28;20049;-70
2022/10/29 01:00:39;;;;;;;89.38;45.05;;;;;;;13.96;100.00;101603.97;5108848;28;20102;-70
2022/10/29 01:03:05;;;;;;;93.28;44.72;;;;;;;13.94;100.00;101599.69;5108624;28;20110;-70
2022/10/29 01:05:33;;;;;;;89.57;44.83;;;;;;;13.93;100.00;101598.81;5108933;28;20059;-70
2022/10/29 01:07:59;;;;;;;86.50;44.78;;;;;;;13.94;100.00;101602.38;5109453;27;20035;-70
2022/10/29 01:10:45;;;;;;;86.72;43.53;;;;;;;13.82;100.00;101579.09;5108620;28;20027;-70
2022/10/29 01:13:37;;;;;;;84.22;41.70;;;;;;;13.93;100.00;101596.13;5108638;28;20027;-70
2022/10/29 01:16:29;;;;;;;71.82;39.10;;;;;;;13.94;100.00;101594.28;5066251;28;20027;-70
2022/10/29 01:19:19;;;;;;;79.20;39.22;;;;;;;13.93;100.00;101589.88;5107912;28;20028;-70
2022/10/29 01:21:52;;;;;;;75.05;39.33;;;;;;;13.91;100.00;101589.13;5108504;28;20030;-70
2022/10/29 01:24:45;;;;;;;77.10;40.58;;;;;;;13.90;100.00;101593.69;5107656;28;20023;-70
2022/10/29 01:27:16;;;;;;;88.15;43.42;;;;;;;13.89;100.00;101594.66;5107935;28;20027;-70
2022/10/29 01:30:00;;;;;;;72.72;39.58;;;;;;;13.89;100.00;101597.34;5108451;28;20475;-70
2022/10/29 01:32:30;;;;;;;72.65;38.72;;;;;;;13.89;100.00;101597.34;5107042;28;20060;-70
2022/10/29 01:35:01;;;;;;;76.53;39.50;;;;;;;13.89;100.00;101593.81;5109113;28;20031;-67
2022/10/29 01:37:54;;;;;;;77.45;41.45;;;;;;;13.89;100.00;101589.25;5106553;28;20031;-68
2022/10/29 01:40:38;;;;;;;75.28;39.95;;;;;;;13.88;100.00;101595.66;5105027;28;20119;-67
2022/10/29 01:43:06;;;;;;;81.07;41.75;;;;;;;13.84;100.00;101590.63;5107565;28;20487;-67
2022/10/29 01:45:42;;;;;;;79.70;41.90;;;;;;;13.77;100.00;101582.19;5107077;28;20051;-67
2022/10/29 01:48:12;;;;;;;71.95;37.75;;;;;;;13.79;100.00;101577.50;5106990;28;20499;-67
2022/10/29 01:50:41;;;;;;;75.93;41.03;;;;;;;13.80;100.00;101590.00;5107367;28;20028;-67
2022/10/29 01:53:06;;;;;;;80.50;41.33;;;;;;;13.82;100.00;101587.19;5107326;28;20480;-67
2022/10/29 01:55:36;;;;;;;73.80;40.72;;;;;;;13.73;100.00;101567.22;5107835;28;20112;-68
2022/10/29 01:58:06;;;;;;;79.45;42.28;;;;;;;13.81;100.00;101572.00;5107648;28;20031;-68
2022/10/29 02:01:00;;;;;;;79.80;40.20;;;;;;;13.78;100.00;101575.81;5107376;28;20422;-67
2022/10/29 02:03:34;;;;;;;82.38;40.70;;;;;;;13.81;100.00;101577.38;5083587;28;20047;-70
2022/10/29 02:06:38;;;;;;;74.95;40.05;;;;;;;13.79;100.00;101572.13;5108007;28;20356;-70
2022/10/29 02:09:03;;;;;;;74.82;38.25;;;;;;;13.77;100.00;101574.94;5063687;28;20044;-70
2022/10/29 02:12:02;;;;;;;79.05;40.63;;;;;;;13.77;100.00;101584.03;5064578;28;20036;-70
2022/10/29 02:14:37;;;;;;;76.40;41.15;;;;;;;13.77;100.00;101571.41;5091608;28;20534;-70
2022/10/29 02:17:05;;;;;;;79.25;42.30;;;;;;;13.69;100.00;101565.75;5107441;28;20095;-70
2022/10/29 02:19:32;;;;;;;83.20;42.42;;;;;;;13.76;100.00;101572.38;5106935;28;20046;-70
2022/10/29 02:21:58;;;;;;;77.13;41.60;;;;;;;13.77;100.00;101566.00;5107774;28;20479;-70
2022/10/29 02:24:24;;;;;;;81.13;40.38;;;;;;;13.75;100.00;101565.28;5107318;28;20030;-70
2022/10/29 02:26:50;;;;;;;75.07;39.40;;;;;;;13.78;100.00;101570.41;5107415;28;20699;-70
2022/10/29 02:29:16;;;;;;;67.18;37.83;;;;;;;13.71;100.00;101559.25;5106697;28;20189;-70
2022/10/29 02:31:41;;;;;;;76.70;38.97;;;;;;;13.77;100.00;101562.44;5107269;28;20019;-70
2022/10/29 02:34:07;;;;;;;66.05;37.08;;;;;;;13.76;100.00;101555.34;5107064;28;20031;-70
2022/10/29 02:36:32;;;;;;;66.88;36.83;;;;;;;13.70;100.00;101548.59;5109774;28;20104;-70
2022/10/29 02:38:58;;;;;;;67.80;36.55;;;;;;;13.64;100.00;101531.09;5111565;28;20069;-70
2022/10/29 02:41:23;;;;;;;71.22;37.10;;;;;;;13.53;100.00;101516.75;5110920;28;20045;-69
2022/10/29 02:43:49;;;;;;;71.65;38.40;;;;;;;13.73;100.00;101553.75;5109227;28;20028;-70
2022/10/29 02:46:17;;;;;;;68.85;36.63;;;;;;;13.71;100.00;101551.16;5110263;28;20081;-70
2022/10/29 02:48:43;;;;;;;68.70;37.08;;;;;;;13.64;100.00;101533.78;5110789;28;20490;-70
2022/10/29 02:51:08;;;;;;;67.82;36.70;;;;;;;13.71;100.00;101556.56;5110725;28;20027;-68
2022/10/29 02:53:34;;;;;;;69.15;37.92;;;;;;;13.65;100.00;101551.66;5111073;27;20038;-68
2022/10/29 02:55:59;;;;;;;76.93;38.83;;;;;;;13.71;100.00;101564.66;5111682;27;20082;-67
2022/10/29 02:58:24;;;;;;;70.05;35.67;;;;;;;13.59;100.00;101544.09;5110178;28;20038;-67
2022/10/29 03:00:51;;;;;;;74.07;38.75;;;;;;;13.68;100.00;101553.28;5110701;28;20035;-70
2022/10/29 03:03:17;;;;;;;72.88;37.35;;;;;;;13.71;100.00;101559.25;5110442;28;20039;-70
2022/10/29 03:05:43;;;;;;;72.28;38.53;;;;;;;13.57;100.00;101529.00;5111092;28;20525;-70
2022/10/29 03:08:08;;;;;;;66.30;35.20;;;;;;;13.71;100.00;101548.47;5109650;28;20101;-70
2022/10/29 03:10:34;;;;;;;67.97;36.72;;;;;;;13.72;100.00;101543.94;5111093;28;20035;-70
2022/10/29 03:13:00;;;;;;;65.28;35.90;;;;;;;13.71;100.00;101548.47;5110013;28;20094;-70
2022/10/29 03:15:25;;;;;;;65.22;36.45;;;;;;;13.72;100.00;101538.56;5110763;28;20029;-70
2022/10/29 03:17:51;;;;;;;67.45;36.13;;;;;;;13.63;100.00;101525.81;5110894;28;20028;-67
2022/10/29 03:20:16;;;;;;;64.88;35.15;;;;;;;13.67;100.00;101536.22;5110640;28;20028;-67
2022/10/29 03:22:42;;;;;;;61.67;34.35;;;;;;;13.59;100.00;101521.66;5109946;28;20106;-67
2022/10/29 03:25:08;;;;;;;61.13;34.97;;;;;;;13.65;100.00;101531.94;5109871;28;20030;-68
2022/10/29 03:27:41;;;;;;;66.82;36.05;;;;;;;13.64;100.00;101524.81;5110882;28;20035;-67
2022/10/29 03:30:08;;;;;;;65.78;36.22;;;;;;;13.58;100.00;101522.66;5108015;28;20027;-67
2022/10/29 03:32:34;;;;;;;65.82;36.78;;;;;;;13.66;100.00;101533.66;5110693;28;20024;-67
2022/10/29 03:34:59;;;;;;;64.70;36.30;;;;;;;13.53;100.00;101508.66;5110605;28;20076;-67
2022/10/29 03:37:25;;;;;;;65.10;36.03;;;;;;;13.57;100.00;101507.44;5110542;28;20054;-67
2022/10/29 03:39:50;;;;;;;67.70;36.33;;;;;;;13.62;100.00;101526.81;5110603;28;20118;-67
2022/10/29 03:42:15;;;;;;;62.67;34.63;;;;;;;13.59;100.00;101525.22;5109048;28;20352;-67
2022/10/29 03:44:41;;;;;;;62.72;33.08;;;;;;;13.51;100.00;101513.31;5110509;28;20046;-67
2022/10/29 03:47:08;;;;;;;64.88;36.53;;;;;;;13.59;100.00;101522.53;5108206;28;20053;-67
2022/10/29 03:49:33;;;;;;;61.60;34.83;;;;;;;13.56;100.00;101524.59;5110200;28;20034;-67
2022/10/29 03:51:59;;;;;;;62.20;34.60;;;;;;;13.49;100.00;101516.16;5109113;28;20394;-67
2022/10/29 03:54:24;;;;;;;63.00;34.33;;;;;;;13.57;100.00;101537.97;5109978;28;20030;-67
2022/10/29 03:56:50;;;;;;;59.83;34.33;;;;;;;13.56;100.00;101528.16;5110338;28;20072;-67
2022/10/29 03:59:15;;;;;;;60.10;33.53;;;;;;;13.54;100.00;101524.72;5108039;28;20039;-67
2022/10/29 04:01:40;;;;;;;54.35;32.17;;;;;;;13.50;100.00;101525.97;5108763;28;20071;-66
2022/10/29 04:04:06;;;;;;;60.88;34.10;;;;;;;13.56;100.00;101527.28;5109620;28;20107;-67
2022/10/29 04:06:31;;;;;;;52.38;32.28;;;;;;;13.54;100.00;101534.63;5108609;27;20280;-69
2022/10/29 04:08:57;;;;;;;56.42;32.70;;;;;;;13.55;100.00;101536.38;5109479;28;20027;-69
2022/10/29 04:11:22;;;;;;;52.10;31.13;;;;;;;13.52;100.00;101542.00;5109332;28;20042;-69
2022/10/29 04:13:51;;;;;;;52.65;32.08;;;;;;;13.52;100.00;101542.84;5109186;28;20015;-67
2022/10/29 04:16:17;;;;;;;56.28;33.08;;;;;;;13.52;100.00;101545.53;5108001;28;20526;-67
2022/10/29 04:18:42;;;;;;;51.83;31.10;;;;;;;13.51;100.00;101535.75;5107498;28;20119;-67
2022/10/29 04:21:07;;;;;;;53.22;32.00;;;;;;;13.42;100.00;101528.41;5108516;28;20028;-67
2022/10/29 04:23:33;;;;;;;55.80;32.45;;;;;;;13.49;100.00;101540.44;5109012;28;20031;-67
2022/10/29 04:25:58;;;;;;;56.58;32.83;;;;;;;13.31;100.00;101500.59;5108869;28;20099;-67
2022/10/29 04:28:25;;;;;;;56.10;32.85;;;;;;;13.47;100.00;101528.03;5108340;28;20788;-67
2022/10/29 04:30:51;;;;;;;58.80;33.95;;;;;;;13.46;100.00;101526.31;5106199;28;20019;-67
2022/10/29 04:33:17;;;;;;;57.30;33.00;;;;;;;13.32;100.00;101515.81;5106353;28;20028;-67
2022/10/29 04:35:42;;;;;;;59.00;34.35;;;;;;;13.43;100.00;101527.44;5108050;28;20056;-68
2022/10/29 04:38:09;;;;;;;62.53;35.35;;;;;;;13.43;100.00;101531.97;5108815;28;20031;-67
2022/10/29 04:40:34;;;;;;;53.42;32.10;;;;;;;13.36;100.00;101526.22;5106790;28;20031;-67
2022/10/29 04:42:59;;;;;;;54.78;32.78;;;;;;;13.42;100.00;101533.78;5108801;28;20744;-67
2022/10/29 04:45:25;;;;;;;54.90;32.90;;;;;;;13.40;100.00;101541.16;5108529;28;20187;-67
2022/10/29 04:48:01;;;;;;;53.13;32.30;;;;;;;13.40;100.00;101543.00;5108156;28;20047;-67
2022/10/29 04:50:27;;;;;;;54.90;32.53;;;;;;;13.31;100.00;101543.72;5106945;28;20023;-67
2022/10/29 04:52:57;;;;;;;56.78;32.47;;;;;;;13.40;100.00;101548.38;5107110;28;20023;-67
2022/10/29 04:55:22;;;;;;;57.95;32.75;;;;;;;13.38;100.00;101545.81;5106225;28;20023;-67
2022/10/29 04:57:49;;;;;;;59.03;32.83;;;;;;;13.33;100.00;101541.75;5106576;28;20100;-67
2022/10/29 05:00:14;;;;;;;55.28;32.47;;;;;;;13.37;100.00;101537.84;5107460;28;20094;-67
2022/10/29 05:02:40;;;;;;;55.10;32.92;;;;;;;13.39;100.00;101547.50;5106668;28;20159;-67
2022/10/29 05:05:06;;;;;;;53.92;33.85;;;;;;;13.40;100.00;101551.06;5108216;28;20613;-67
2022/10/29 05:07:31;;;;;;;63.53;34.78;;;;;;;13.43;100.00;101545.44;5107872;28;20054;-67
2022/10/29 05:09:56;;;;;;;54.80;34.42;;;;;;;13.40;100.00;101541.16;5107944;28;20023;-67
2022/10/29 05:12:22;;;;;;;52.13;32.95;;;;;;;13.42;100.00;101541.03;5106249;28;20108;-67
2022/10/29 05:14:47;;;;;;;52.38;31.98;;;;;;;13.39;100.00;101534.03;5108169;28;20370;-67
2022/10/29 05:17:13;;;;;;;57.72;33.60;;;;;;;13.39;100.00;101533.19;5107554;28;20081;-67
2022/10/29 05:19:38;;;;;;;53.38;32.38;;;;;;;13.38;100.00;101520.69;5103509;28;20035;-67
2022/10/29 05:22:03;;;;;;;57.05;34.47;;;;;;;13.28;100.00;101508.94;5105375;28;20023;-69
2022/10/29 05:24:29;;;;;;;55.50;33.50;;;;;;;13.42;100.00;101532.94;5106974;28;20042;-69
2022/10/29 05:26:54;;;;;;;54.72;32.55;;;;;;;13.32;100.00;101522.03;5107238;28;20663;-69
2022/10/29 05:29:20;;;;;;;54.55;33.78;;;;;;;13.34;100.00;101533.56;5107686;28;20068;-67
2022/10/29 05:31:45;;;;;;;57.75;35.13;;;;;;;13.37;100.00;101537.84;5107096;28;20035;-68
2022/10/29 05:34:11;;;;;;;62.38;36.83;;;;;;;13.37;100.00;101538.72;5101404;27;20028;-67
2022/10/29 05:36:36;;;;;;;63.45;36.50;;;;;;;13.38;100.00;101540.41;5108005;27;20190;-67
2022/10/29 05:39:01;;;;;;;61.30;36.28;;;;;;;13.37;100.00;101532.44;5107626;28;20040;-67
2022/10/29 05:41:27;;;;;;;61.17;36.83;;;;;;;13.40;100.00;101540.28;5107016;28;20026;-67
2022/10/29 05:43:52;;;;;;;58.67;35.30;;;;;;;13.41;100.00;101552.78;5107418;28;20031;-67
2022/10/29 05:46:19;;;;;;;54.90;35.00;;;;;;;13.27;100.00;101512.63;5106914;28;20044;-68
2022/10/29 05:48:44;;;;;;;55.90;35.40;;;;;;;13.41;100.00;101542.88;5106549;28;20359;-67
2022/10/29 05:51:10;;;;;;;61.80;37.42;;;;;;;13.38;100.00;101547.63;5107615;28;20031;-68
2022/10/29 05:53:35;;;;;;;57.80;34.13;;;;;;;13.43;100.00;101542.75;5102839;28;20368;-67
2022/10/29 05:56:01;;;;;;;58.13;34.58;;;;;;;13.32;100.00;101537.38;5102522;28;20028;-68
2022/10/29 05:58:26;;;;;;;57.92;33.17;;;;;;;13.31;100.00;101541.03;5106692;28;20138;-68
2022/10/29 06:00:51;;;;;;;52.67;31.83;;;;;;;13.21;100.00;101526.56;5106592;28;20040;-67
2022/10/29 06:03:20;;;;;;;55.80;33.75;;;;;;;13.35;100.00;101553.28;5106716;28;20038;-69
2022/10/29 06:05:46;;;;;;;55.38;36.13;;;;;;;13.35;100.00;101550.59;5106365;28;20043;-70
2022/10/29 06:08:12;;;;;;;59.10;35.97;;;;;;;13.25;100.00;101533.41;5106320;28;20043;-70
2022/10/29 06:10:37;;;;;;;58.78;34.40;;;;;;;13.36;100.00;101557.69;5104312;28;20038;-69
2022/10/29 06:13:15;;;;;;;49.22;31.17;;;;;;;13.35;100.00;101554.13;5106866;28;20030;-69
2022/10/29 06:15:40;;;;;;;53.95;32.53;;;;;;;13.36;100.00;101557.69;5106565;28;20043;-69
2022/10/29 06:18:06;;;;;;;52.60;32.03;;;;;;;13.19;100.00;101532.06;5107158;28;20031;-69
2022/10/29 06:20:31;;;;;;;51.80;34.03;;;;;;;13.29;100.00;101551.91;5106271;28;20062;-69
2022/10/29 06:22:58;;;;;;;55.35;33.65;;;;;;;13.31;100.00;101546.41;5106582;28;20110;-70
2022/10/29 06:25:24;;;;;;;52.03;33.30;;;;;;;13.29;100.00;101538.44;5104813;28;20040;-69
2022/10/29 06:28:07;;;;;;;61.72;36.03;;;;;;;13.35;100.00;101550.59;5106919;28;20027;-70
2022/10/29 06:30:34;;;;;;;55.47;36.03;;;;;;;13.34;100.00;101551.56;5104627;28;20063;-70
2022/10/29 06:33:00;;;;;;;55.65;35.30;;;;;;;13.36;100.00;101553.19;5106485;28;20106;-70
2022/10/29 06:35:26;;;;;;;61.72;35.50;;;;;;;13.34;100.00;101556.94;5105423;28;20027;-69
2022/10/29 06:37:51;;;;;;;55.33;32.63;;;;;;;13.40;100.00;101561.84;5104613;28;20032;-69
2022/10/29 06:40:17;;;;;;;54.20;33.60;;;;;;;13.43;100.00;101575.09;5106639;28;20035;-69
2022/10/29 06:42:42;;;;;;;48.90;33.00;;;;;;;13.41;100.00;101580.59;5106674;28;20026;-70
2022/10/29 06:45:08;;;;;;;48.15;31.85;;;;;;;13.35;100.00;101573.00;5106605;28;20023;-69
2022/10/29 06:47:41;;;;;;;52.75;32.58;;;;;;;13.34;100.00;101565.03;5104520;28;20040;-69
2022/10/29 06:50:08;;;;;;;51.38;30.98;;;;;;;13.38;100.00;101580.84;5105243;28;20084;-69
2022/10/29 06:52:33;;;;;;;54.35;32.65;;;;;;;13.43;100.00;101585.88;5105090;28;20122;-69
2022/10/29 06:55:01;;;;;;;54.72;32.13;;;;;;;13.38;100.00;101578.16;5106142;28;20091;-69
2022/10/29 06:57:27;;;;;;;54.20;32.47;;;;;;;13.37;100.00;101571.03;5105208;28;20027;-70
2022/10/29 06:59:52;;;;;;;53.70;32.30;;;;;;;13.30;100.00;101555.47;5106818;28;20027;-69
2022/10/29 07:02:20;;;;;;;53.08;31.75;;;;;;;13.24;100.00;101548.75;5104963;28;20072;-69
2022/10/29 07:04:45;;;;;;;53.08;31.95;;;;;;;13.34;100.00;101557.81;5105117;28;20031;-69
2022/10/29 07:07:10;;;;;;;53.72;32.60;;;;;;;13.39;100.00;101554.75;5106570;28;20031;-70
2022/10/29 07:09:36;;;;;;;51.75;30.90;;;;;;;13.31;100.00;101532.94;5105901;28;20038;-69
2022/10/29 07:12:01;;;;;;;48.88;31.48;;;;;;;13.40;100.00;101551.06;5106331;28;20042;-70
2022/10/29 07:14:27;;;;;;;51.00;31.05;;;;;;;13.39;100.00;101544.81;5106076;28;20175;-69
2022/10/29 07:16:52;;;;;;;51.17;32.95;;;;;;;13.37;100.00;101532.44;5106241;28;20024;-69
2022/10/29 07:19:18;;;;;;;54.67;31.75;;;;;;;13.43;100.00;101561.59;5105928;28;20046;-70
2022/10/29 07:21:43;;;;;;;53.65;31.83;;;;;;;13.44;100.00;101557.94;5106075;28;20164;-70
2022/10/29 07:24:09;;;;;;;50.15;31.95;;;;;;;13.42;100.00;101552.66;5109287;28;20427;-69
2022/10/29 07:26:35;;;;;;;51.60;31.83;;;;;;;13.48;100.00;101562.13;5109428;28;20106;-70
2022/10/29 07:29:00;;;;;;;50.38;31.50;;;;;;;13.41;100.00;101547.38;5110360;28;20023;-69
2022/10/29 07:31:27;;;;;;;49.63;30.75;;;;;;;13.38;100.00;101537.72;5108788;27;20023;-70
2022/10/29 07:33:53;;;;;;;52.33;31.48;;;;;;;13.52;100.00;101559.03;5107212;28;20032;-69
2022/10/29 07:36:18;;;;;;;42.80;27.85;;;;;;;13.54;100.00;101567.84;5107412;28;20030;-69
2022/10/29 07:38:43;;;;;;;48.25;30.20;;;;;;;13.45;100.00;101563.19;5108124;28;20023;-69
2022/10/29 07:41:09;;;;;;;47.28;29.33;;;;;;;13.54;100.00;101557.06;5109084;28;20489;-69
2022/10/29 07:43:34;;;;;;;49.80;31.73;;;;;;;13.41;100.00;101540.16;5109697;28;20024;-70
2022/10/29 07:46:00;;;;;;;42.33;29.15;;;;;;;13.64;100.00;101573.34;5109600;28;20055;-70
2022/10/29 07:48:25;;;;;;;45.40;29.27;;;;;;;13.66;100.00;101583.06;5108186;28;20076;-70
2022/10/29 07:50:51;;;;;;;42.92;27.23;;;;;;;13.59;100.00;101562.97;5109848;28;20020;-69
2022/10/29 07:53:16;;;;;;;46.22;29.35;;;;;;;13.67;100.00;101586.59;5109486;27;20444;-70
2022/10/29 07:55:41;;;;;;;44.95;29.50;;;;;;;13.61;100.00;101569.06;5110066;28;20035;-69
2022/10/29 07:58:11;;;;;;;45.17;29.67;;;;;;;13.66;100.00;101583.06;5107131;28;20027;-69
2022/10/29 08:00:38;;;;;;;47.45;30.48;;;;;;;13.66;100.00;101582.19;5109636;28;20693;-70
2022/10/29 08:03:05;;;;;;;49.00;31.05;;;;;;;13.69;100.00;101576.53;5109475;28;20092;-70
2022/10/29 08:05:31;;;;;;;43.78;28.80;;;;;;;13.66;100.00;101577.66;5109076;28;20054;-70
2022/10/29 08:07:57;;;;;;;48.00;30.60;;;;;;;13.63;100.00;101568.94;5109553;28;20031;-70
2022/10/29 08:10:24;;;;;;;50.05;31.98;;;;;;;13.69;100.00;101568.47;5109099;28;20475;-70
2022/10/29 08:12:50;;;;;;;45.95;29.65;;;;;;;13.62;100.00;101549.25;5109431;28;20039;-70
2022/10/29 08:15:16;;;;;;;49.20;30.88;;;;;;;13.64;100.00;101557.16;5108195;28;20027;-69
2022/10/29 08:17:42;;;;;;;51.00;31.70;;;;;;;13.67;100.00;101556.94;5109306;28;20046;-70
2022/10/29 08:20:08;;;;;;;48.88;32.10;;;;;;;13.56;100.00;101527.28;5109314;28;20036;-70
2022/10/29 08:22:34;;;;;;;47.78;31.38;;;;;;;13.70;100.00;101540.50;5108335;28;20161;-70
2022/10/29 08:25:00;;;;;;;45.75;30.25;;;;;;;13.76;100.00;101544.56;5107373;28;20039;-70
2022/10/29 08:27:26;;;;;;;50.00;32.90;;;;;;;13.61;100.00;101517.00;5108758;28;20359;-70
2022/10/29 08:29:51;;;;;;;50.00;31.63;;;;;;;13.81;100.00;101545.91;5109184;28;20022;-70
2022/10/29 08:32:16;;;;;;;48.53;31.65;;;;;;;13.83;100.00;101546.59;5109265;28;20028;-69
2022/10/29 08:34:42;;;;;;;49.10;31.60;;;;;;;13.85;100.00;101563.53;5107825;28;20027;-69
2022/10/29 08:37:07;;;;;;;53.15;33.22;;;;;;;13.86;100.00;101569.78;5108671;28;20016;-69
2022/10/29 08:39:33;;;;;;;53.70;32.97;;;;;;;13.89;100.00;101566.84;5107128;28;20042;-70
2022/10/29 08:42:18;;;;;;;52.95;33.03;;;;;;;13.89;100.00;101564.16;5108903;28;20015;-69
2022/10/29 08:45:07;;;;;;;53.35;33.28;;;;;;;13.92;100.00;101558.47;5108918;28;20035;-67
2022/10/29 08:48:14;;;;;;;55.72;34.33;;;;;;;13.93;100.00;101563.75;5096569;28;20039;-68
2022/10/29 08:50:46;;;;;;;51.10;32.42;;;;;;;13.89;100.00;101542.56;5106993;28;20049;-68
2022/10/29 08:53:18;;;;;;;51.25;33.42;;;;;;;13.90;100.00;101547.84;5108364;27;20028;-68
2022/10/29 08:55:45;;;;;;;50.42;32.25;;;;;;;13.93;100.00;101563.75;5107218;28;20488;-67
2022/10/29 08:58:23;;;;;;;47.30;30.45;;;;;;;13.98;100.00;101564.25;5107025;28;20459;-67
2022/10/29 09:00:54;;;;;;;49.55;32.35;;;;;;;13.99;100.00;101563.25;5108036;28;20039;-67
2022/10/29 09:03:20;;;;;;;52.80;31.75;;;;;;;13.96;100.00;101557.28;5108405;28;20547;-68
2022/10/29 09:06:09;;;;;;;51.55;33.00;;;;;;;14.08;100.00;101565.19;5108616;27;20076;-67
2022/10/29 09:09:00;;;;;;;53.75;34.13;;;;;;;14.08;100.00;101567.03;5108105;28;20114;-67
2022/10/29 09:11:37;;;;;;;62.35;38.30;;;;;;;14.06;100.00;101552.81;5108335;28;20055;-68
2022/10/29 09:14:16;;;;;;;63.28;37.97;;;;;;;14.13;100.00;101560.28;5106753;28;20035;-68
2022/10/29 09:16:56;;;;;;;64.80;39.15;;;;;;;14.12;100.00;101555.03;5108100;28;20763;-67
2022/10/29 09:19:36;;;;;;;62.47;39.45;;;;;;;14.05;100.00;101549.25;5107936;28;20080;-67
2022/10/29 09:22:20;;;;;;;68.75;40.95;;;;;;;14.19;100.00;101562.44;5106794;28;20047;-68
2022/10/29 09:24:53;;;;;;;68.70;40.35;;;;;;;14.29;100.00;101566.16;5106354;28;20059;-67
2022/10/29 09:27:53;;;;;;;72.18;44.20;;;;;;;14.26;100.00;101565.53;5107686;28;20050;-67
2022/10/29 09:30:19;;;;;;;76.03;44.58;;;;;;;14.10;100.00;101532.69;5107624;28;20022;-68
2022/10/29 09:33:07;;;;;;;78.85;45.70;;;;;;;14.27;100.00;101556.47;5106702;28;20475;-67
2022/10/29 09:35:39;;;;;;;83.53;49.17;;;;;;;14.29;100.00;101560.75;5109300;27;20027;-67
2022/10/29 09:38:12;;;;;;;81.95;47.17;;;;;;;14.34;100.00;101561.22;5105978;27;20035;-67
2022/10/29 09:40:41;;;;;;;77.78;46.83;;;;;;;14.37;100.00;101555.56;5106031;27;20122;-68
2022/10/29 09:43:31;;;;;;;83.90;48.85;;;;;;;14.20;100.00;101528.25;5105291;27;20023;-67
2022/10/29 09:46:03;;;;;;;83.13;50.15;;;;;;;14.38;100.00;101559.97;5107090;28;20047;-67
2022/10/29 09:49:13;;;;;;;82.70;49.60;;;;;;;14.40;100.00;101555.31;5107505;28;20072;-67
2022/10/29 09:51:59;;;;;;;82.82;48.47;;;;;;;14.44;100.00;101548.66;5090935;28;20031;-68
2022/10/29 09:54:28;;;;;;;78.50;48.03;;;;;;;14.36;100.00;101521.47;5105691;28;20898;-68
2022/10/29 09:56:56;;;;;;;83.75;48.97;;;;;;;14.53;100.00;101539.78;5105363;28;20026;-67
2022/10/29 09:59:39;;;;;;;81.45;49.33;;;;;;;14.55;100.00;101527.03;5107098;28;20042;-67
2022/10/29 10:02:31;;;;;;;91.13;50.35;;;;;;;14.61;100.00;101529.19;5106099;28;20570;-67
2022/10/29 10:05:03;;;;;;;88.70;51.97;;;;;;;14.61;100.00;101522.94;5107356;28;20023;-67
2022/10/29 10:07:29;;;;;;;86.03;51.33;;;;;;;14.54;100.00;101501.00;5107463;28;20020;-68
2022/10/29 10:09:55;;;;;;;88.78;51.38;;;;;;;14.64;100.00;101515.41;5107279;28;20031;-67
2022/10/29 10:12:27;;;;;;;87.90;51.97;;;;;;;14.66;100.00;101508.06;5107646;28;20035;-67
2022/10/29 10:15:07;;;;;;;86.03;52.35;;;;;;;14.65;100.00;101495.53;5107881;28;20058;-67
2022/10/29 10:17:54;;;;;;;89.53;51.33;;;;;;;14.72;100.00;101510.22;5106709;28;20043;-67
2022/10/29 10:20:33;;;;;;;90.07;50.63;;;;;;;14.67;100.00;101495.41;5105673;28;20088;-67
2022/10/29 10:22:59;;;;;;;81.35;48.47;;;;;;;14.79;100.00;101503.31;5099771;28;20031;-67
2022/10/29 10:25:32;;;;;;;77.22;48.88;;;;;;;14.78;100.00;101498.03;5104987;28;20040;-67
2022/10/29 10:28:02;;;;;;;80.03;47.47;;;;;;;14.72;100.00;101479.66;5106289;28;20046;-67
2022/10/29 10:30:28;;;;;;;79.38;49.35;;;;;;;14.80;100.00;101475.28;5106846;28;20056;-67
2022/10/29 10:32:57;;;;;;;85.30;50.72;;;;;;;14.90;100.00;101487.00;5107040;28;20031;-68
2022/10/29 10:35:29;;;;;;;89.15;51.35;;;;;;;14.94;100.00;101487.59;5104590;28;20043;-68
2022/10/29 10:37:55;;;;;;;85.07;49.60;;;;;;;14.96;100.00;101486.47;5106830;28;20040;-68
2022/10/29 10:40:23;;;;;;;86.95;52.05;;;;;;;15.00;100.00;101479.81;5106735;28;20615;-70
2022/10/29 10:42:52;;;;;;;82.88;51.00;;;;;;;15.00;100.00;101487.06;5107132;28;20432;-70
2022/10/29 10:45:26;;;;;;;86.18;51.00;;;;;;;15.01;100.00;101486.94;5107013;28;20023;-70
2022/10/29 10:47:56;;;;;;;79.75;48.45;;;;;;;14.99;100.00;101482.69;5105868;28;20039;-70
2022/10/29 10:50:31;;;;;;;91.10;52.72;;;;;;;15.05;100.00;101491.09;5107338;28;20030;-70
2022/10/29 10:53:00;;;;;;;81.45;50.88;;;;;;;15.06;100.00;101481.97;5105073;28;20027;-69
2022/10/29 10:55:38;;;;;;;86.18;52.25;;;;;;;15.10;100.00;101482.56;5106883;28;20169;-70
2022/10/29 10:58:25;;;;;;;83.85;50.95;;;;;;;15.12;100.00;101470.63;5108346;28;20131;-70
2022/10/29 11:01:02;;;;;;;84.03;51.25;;;;;;;15.01;100.00;101442.84;5106449;28;20027;-70
2022/10/29 11:03:46;;;;;;;86.28;51.67;;;;;;;15.13;100.00;101450.72;5109285;28;20390;-70
2022/10/29 11:06:21;;;;;;;75.10;46.78;;;;;;;15.13;100.00;101442.59;5108473;27;20035;-70
2022/10/29 11:08:55;;;;;;;81.47;49.78;;;;;;;15.24;100.00;101458.75;5109318;28;20103;-70
2022/10/29 11:11:48;;;;;;;73.20;48.33;;;;;;;15.35;100.00;101464.03;5109330;27;20418;-70
2022/10/29 11:14:24;;;;;;;71.97;47.33;;;;;;;15.39;100.00;101470.94;5098165;28;20067;-70